Latest Weather Observations for Melbourne

IDV60901

Issued at 5:55 pm EDT Saturday 25 October 2014 (issued every 10 minutes, with the page automatically refreshed every 10 minutes)

About weather observations | Map of Melbourne area stations | Latest observations for Melbourne area | Other Formats
Station Details ID: 086071 Name: MELBOURNE REGIONAL OFFICE Lat: -37.81 Lon: 144.97 Height: 31.15 m
Data from the previous 72 hours. | See also: Recent months at Melbourne

* Apparent temperature (App Temp) for Melbourne is calculated using temperature observations collected at Melbourne and wind observations collected at Melbourne (Olympic Park), as wind observations are not currently provided for Melbourne.

Date/Time
EDT
Tmp

°C
App
Tmp
°C
Dew
Point
°C
Rel
Hum
%
Delta-T

°C
Wind Press
QNH
hPa
Press
MSL
hPa
Rain
since
9 am
mm
Dir
 
Spd
km/h
Gust
km/h
Spd
kts
Gust
kts
25/05:30pm 18.2 16.0 10.8 62 4.0 S 13 - 7 - 1014.7 - 0.0
25/05:00pm 18.2 15.1 10.3 60 4.2 S 17 - 9 - 1014.6 - 0.0
25/04:30pm 19.2 16.0 10.0 55 4.9 S 17 - 9 - 1014.5 - 0.0
25/04:00pm 19.8 17.5 10.4 54 5.1 SSW 13 - 7 - 1014.5 - 0.0
25/03:30pm 19.8 17.0 10.1 53 5.2 SSW 15 - 8 - 1014.6 - 0.0
25/03:00pm 19.7 17.0 10.2 54 5.1 SSW 15 - 8 - 1015.0 1014.9 0.0
25/02:30pm 18.7 16.7 10.1 57 4.6 SSW 11 - 6 - 1015.4 - 0.0
25/02:00pm 18.3 16.6 9.8 57 4.5 SW 9 - 5 - 1015.8 - 0.0
25/01:30pm 18.8 16.8 10.0 56 4.7 SW 11 - 6 - 1015.9 - 0.0
25/01:00pm 17.8 16.3 10.5 62 3.9 SSW 9 - 5 - 1016.1 - 0.0
25/12:30pm 17.8 16.2 10.1 60 4.1 WSW 9 - 5 - 1016.4 - 0.0
25/12:00pm 17.0 14.6 10.0 63 3.7 SSW 13 - 7 - 1016.9 1016.8 0.0
25/11:30am 16.8 15.2 10.2 65 3.5 SSW 9 - 5 - 1017.2 - 0.0
25/11:00am 16.4 14.8 10.1 66 3.3 SSE 9 - 5 - 1017.6 - 0.0
25/10:30am 15.8 13.9 10.5 71 2.8 S 11 - 6 - 1017.6 - 0.0
25/10:00am 15.9 14.2 10.0 68 3.1 SSE 9 - 5 - 1017.5 - 0.0
25/09:30am 16.2 14.9 9.9 66 3.3 S 7 - 4 - 1017.3 - 0.0
25/09:00am 15.5 14.2 9.9 69 2.9 SSE 7 - 4 - 1017.4 1017.4 0.0
25/08:30am 15.3 14.1 10.3 72 2.6 SSE 7 - 4 - 1017.6 - 0.0
25/08:00am 15.2 13.7 10.4 73 2.5 SSE 9 - 5 - 1017.5 - 0.0
25/07:30am 15.1 13.7 10.8 75 2.3 S 9 - 5 - 1017.3 - 0.0
25/07:00am 15.2 14.1 10.7 74 2.4 S 7 - 4 - 1016.9 - 0.0
25/06:30am 15.3 15.5 10.6 73 2.5 CALM 0 - 0 - 1016.8 - 0.0
25/06:00am 15.2 15.4 10.4 73 2.5 SSW 0 - 0 - 1016.6 1016.5 0.0
25/05:30am 15.3 15.0 10.1 71 2.7 SSW 2 - 1 - 1016.6 - 0.0
25/05:00am 15.2 14.1 10.7 74 2.4 SSW 7 - 4 - 1016.3 - 0.0
25/04:30am 15.0 14.3 11.3 78 2.0 SSW 6 - 3 - 1016.1 - 0.0
25/04:00am 15.1 14.5 11.6 79 1.9 SSW 6 - 3 - 1016.2 - 0.0
25/03:30am 15.0 14.2 11.7 80 1.8 SW 7 - 4 - 1016.2 - 0.0
25/03:00am 14.9 14.5 12.3 84 1.4 SW 6 - 3 - 1016.3 1016.2 0.0
25/02:30am 15.2 14.7 12.8 85 1.3 S 7 - 4 - 1016.3 - 0.0
25/02:00am 15.4 14.3 13.1 86 1.3 SSW 11 - 6 - 1016.4 - 0.0
25/01:30am 16.3 15.4 12.7 79 2.0 SSW 9 - 5 - 1016.5 - 0.0
25/01:00am 16.1 15.6 12.7 80 1.9 SSW 7 - 4 - 1016.5 - 0.0
25/12:30am 16.4 16.1 12.8 79 2.0 SSE 6 - 3 - 1016.4 - 0.0
25/12:00am 16.3 16.0 12.7 79 2.0 S 6 - 3 - 1016.5 1016.4 0.0
 
Date/Time
EDT
Tmp

°C
App
Tmp
°C
Dew
Point
°C
Rel
Hum
%
Delta-T

°C
Wind Press
QNH
hPa
Press
MSL
hPa
Rain
since
9 am
mm
Dir
 
Spd
km/h
Gust
km/h
Spd
kts
Gust
kts
24/11:30pm 16.3 15.9 12.9 80 1.9 S 7 - 4 - 1016.4 - 0.0
24/11:00pm 16.7 15.8 12.7 77 2.2 SSE 9 - 5 - 1016.4 - 0.0
24/10:30pm 16.4 15.6 13.0 80 1.9 SSE 9 - 5 - 1016.1 - 0.0
24/10:00pm 16.3 14.7 12.9 80 1.9 S 13 - 7 - 1015.7 - 0.0
24/09:30pm 16.5 14.7 13.3 81 1.8 SSW 15 - 8 - 1015.1 - 0.0
24/09:00pm 16.9 15.6 13.7 81 1.8 SSW 13 - 7 - 1014.2 1014.1 0.0
24/08:30pm 17.3 16.2 14.3 82 1.7 S 13 - 7 - 1013.6 - 0.0
24/08:00pm 19.0 17.3 14.7 76 2.5 SSW 17 - 9 - 1012.6 - 0.0
24/07:30pm 20.2 19.2 14.6 70 3.3 SSW 13 - 7 - 1011.8 - 0.0
24/07:00pm 22.0 20.7 14.9 64 4.2 SSW 15 - 8 - 1011.1 - 0.0
24/06:30pm 25.5 24.0 13.2 46 7.2 SSW 13 - 7 - 1010.1 - 0.0
24/06:00pm 27.3 25.8 11.9 38 8.9 SSW 11 - 6 - 1009.6 1009.6 0.0
24/05:30pm 29.2 27.7 11.8 34 10.1 SSW 11 - 6 - 1009.4 - 0.0
24/05:00pm 30.4 29.0 9.4 27 11.8 S 7 - 4 - 1009.2 - 0.0
24/04:30pm 29.8 30.1 12.3 34 10.3 S 2 - 1 - 1009.3 - 0.0
24/04:00pm 29.0 28.5 12.5 36 9.7 SSW 7 - 4 - 1009.6 - 0.0
24/03:30pm 28.6 27.3 13.7 40 8.9 S 13 - 7 - 1009.8 - 0.0
24/03:00pm 28.1 27.8 13.4 40 8.7 S 7 - 4 - 1009.8 1009.8 0.0
24/02:30pm 28.2 26.9 13.8 41 8.6 SSW 13 - 7 - 1010.0 - 0.0
24/02:00pm 27.7 26.8 13.6 42 8.4 SSW 11 - 6 - 1010.2 - 0.0
24/01:30pm 28.1 28.6 14.1 42 8.4 S 4 - 2 - 1010.3 - 0.0
24/01:00pm 27.9 27.9 14.3 43 8.2 SSW 7 - 4 - 1010.4 - 0.0
24/12:30pm 26.1 26.4 14.6 49 6.9 S 6 - 3 - 1010.8 - 0.0
24/12:00pm 24.0 24.2 14.2 54 5.8 S 6 - 3 - 1011.1 1011.1 0.0
24/11:30am 22.9 21.7 14.0 57 5.2 SSW 13 - 7 - 1011.3 - 0.0
24/11:00am 25.3 25.4 13.8 49 6.8 SW 6 - 3 - 1011.1 - 0.0
24/10:30am 22.5 21.9 13.5 56 5.2 N 9 - 5 - 1011.5 - 0.0
24/10:00am 21.2 22.4 13.8 62 4.3 CALM 0 - 0 - 1011.7 - 0.0
24/09:30am 19.9 20.7 13.8 68 3.5 NNE 2 - 1 - 1011.6 - 0.0
24/09:00am 18.3 19.1 13.7 74 2.6 NW 2 - 1 - 1012.0 1011.9 0.0
24/08:30am 16.8 16.2 13.4 80 1.9 NNE 9 - 5 - 1012.3 - 0.0
24/08:00am 15.7 15.0 13.2 85 1.4 NE 9 - 5 - 1012.3 - 0.0
24/07:30am 15.6 15.3 13.3 86 1.3 NNW 7 - 4 - 1012.4 - 0.0
24/07:00am 15.7 16.4 13.4 86 1.3 N 2 - 1 - 1012.4 - 0.0
24/06:30am 15.5 15.8 13.4 87 1.2 N 4 - 2 - 1012.3 - 0.0
24/06:00am 15.5 15.2 13.4 87 1.2 N 7 - 4 - 1012.3 1012.2 0.0
24/05:30am 15.4 14.7 13.2 87 1.2 NNE 9 - 5 - 1012.4 - 0.0
24/05:00am 15.5 15.4 13.2 86 1.3 NNW 6 - 3 - 1012.5 - 0.0
24/04:30am 15.6 16.2 13.1 85 1.4 N 2 - 1 - 1012.5 - 0.0
24/04:00am 15.5 15.7 13.2 86 1.3 N 4 - 2 - 1012.6 - 0.0
24/03:30am 15.5 15.4 13.2 86 1.3 N 6 - 3 - 1012.7 - 0.0
24/03:00am 15.5 16.5 13.2 86 1.3 CALM 0 - 0 - 1012.9 1012.8 0.0
24/02:30am 15.5 15.4 13.2 86 1.3 NNW 6 - 3 - 1013.4 - 0.0
24/02:00am 15.5 14.8 13.2 86 1.3 NNW 9 - 5 - 1013.7 - 0.0
24/01:30am 15.6 14.5 13.1 85 1.4 NNW 11 - 6 - 1014.0 - 0.0
24/01:00am 15.7 15.9 13.0 84 1.5 NW 4 - 2 - 1014.4 - 0.0
24/12:30am 15.6 15.2 12.9 84 1.5 N 7 - 4 - 1014.6 - 0.0
24/12:00am 16.0 17.0 13.1 83 1.6 CALM 0 - 0 - 1015.0 1014.9 0.0
 
Date/Time
EDT
Tmp

°C
App
Tmp
°C
Dew
Point
°C
Rel
Hum
%
Delta-T

°C
Wind Press
QNH
hPa
Press
MSL
hPa
Rain
since
9 am
mm
Dir
 
Spd
km/h
Gust
km/h
Spd
kts
Gust
kts
23/11:30pm 16.7 17.7 13.3 80 1.9 CALM 0 - 0 - 1015.1 - 0.0
23/11:00pm 16.7 17.7 13.3 80 1.9 CALM 0 - 0 - 1015.1 - 0.0
23/10:30pm 17.4 18.4 13.3 77 2.3 CALM 0 - 0 - 1015.2 - 0.0
23/10:00pm 17.6 18.6 13.3 76 2.4 CALM 0 - 0 - 1015.3 - 0.0
23/09:30pm 17.8 18.5 13.4 75 2.5 SE 2 - 1 - 1015.1 - 0.0
23/09:00pm 18.0 17.9 13.4 74 2.6 SE 6 - 3 - 1014.9 1014.8 0.0
23/08:30pm 18.4 18.2 13.7 74 2.7 SSE 7 - 4 - 1014.7 - 0.0
23/08:00pm 19.0 18.9 13.8 72 3.0 SSE 7 - 4 - 1014.7 - 0.0
23/07:30pm 19.6 19.1 13.9 69 3.3 SSE 9 - 5 - 1014.8 - 0.0
23/07:00pm 20.2 18.6 14.0 67 3.6 SSE 15 - 8 - 1014.7 - 0.0
23/06:30pm 21.4 20.3 14.2 63 4.2 SSE 13 - 7 - 1014.6 - 0.0
23/06:00pm 22.7 21.4 14.8 61 4.7 SSE 15 - 8 - 1014.7 1014.6 0.0
23/05:30pm 21.2 20.8 14.2 64 4.1 SW 9 - 5 - 1015.0 - 0.0
23/05:00pm 20.8 19.6 14.1 65 3.9 WSW 13 - 7 - 1015.4 - 0.0
23/04:30pm 19.8 18.0 13.3 66 3.7 WSW 15 - 8 - 1015.8 - 0.0
23/04:00pm 19.3 17.8 13.1 67 3.5 SW 13 - 7 - 1016.1 - 0.0
23/03:30pm 19.2 17.6 12.8 66 3.6 SSW 13 - 7 - 1016.5 - 0.0
23/03:00pm 18.7 17.1 12.8 68 3.3 SW 13 - 7 - 1017.0 1016.9 0.0
23/02:30pm 18.5 17.3 12.8 69 3.2 SW 11 - 6 - 1017.5 - 0.0
23/02:00pm 18.2 17.0 12.8 71 3.0 SSW 11 - 6 - 1017.9 - 0.0
23/01:30pm 17.2 16.0 12.7 75 2.5 SSW 11 - 6 - 1018.3 - 0.0
23/01:00pm 17.3 15.7 12.8 75 2.5 SSW 13 - 7 - 1018.8 - 0.0
23/12:30pm 17.2 16.2 13.3 78 2.2 SSW 11 - 6 - 1019.0 - 0.0
23/12:00pm 16.7 15.8 12.7 77 2.2 SSW 9 - 5 - 1019.5 1019.5 0.0
23/11:30am 16.4 15.6 12.8 79 2.0 SSW 9 - 5 - 1019.6 - 0.0
23/11:00am 16.3 15.9 12.9 80 1.9 SSW 7 - 4 - 1020.1 - 0.0
23/10:30am 16.3 15.4 12.7 79 2.0 SSW 9 - 5 - 1020.2 - 0.0
23/10:00am 15.8 15.4 12.9 83 1.6 SSW 7 - 4 - 1020.2 - 0.0
23/09:30am 15.4 15.3 13.2 87 1.2 SSW 6 - 3 - 1020.5 - 0.0
23/09:00am 15.3 15.0 13.3 88 1.1 SSW 7 - 4 - 1020.4 1020.4 0.0
23/08:30am 15.3 14.5 12.9 85 1.3 SSE 9 - 5 - 1020.4 - 0.0
23/08:00am 15.9 15.4 12.8 82 1.7 SSE 7 - 4 - 1020.1 - 0.0
23/07:30am 16.2 15.3 12.6 79 2.0 S 9 - 5 - 1019.9 - 0.0
23/07:00am 15.9 15.1 13.0 83 1.6 S 9 - 5 - 1019.6 - 0.0
23/06:30am 15.7 15.5 13.0 84 1.5 S 6 - 3 - 1019.4 - 0.0
23/06:00am 15.8 14.9 13.7 87 1.2 SSW 11 - 6 - 1019.1 1019.1 0.0
23/05:30am 15.9 15.2 13.2 84 1.5 S 9 - 5 - 1018.7 - 0.0
23/05:00am 15.8 15.6 13.1 84 1.5 WSW 6 - 3 - 1018.5 - 0.0
23/04:30am 15.6 15.2 13.1 85 1.4 SW 7 - 4 - 1018.5 - 0.0
23/04:00am 15.7 15.3 13.0 84 1.5 SW 7 - 4 - 1018.3 - 0.0
23/03:30am 15.8 15.4 13.1 84 1.5 SSW 7 - 4 - 1018.6 - 0.0
23/03:00am 15.5 14.8 13.2 86 1.3 SSW 9 - 5 - 1019.0 1019.0 0.0
23/02:30am 15.8 15.1 13.1 84 1.5 SSW 9 - 5 - 1019.1 - 0.0
23/02:00am 15.9 14.8 13.2 84 1.5 SW 11 - 6 - 1019.2 - 0.0
23/01:30am 16.3 15.6 13.3 82 1.7 SSW 9 - 5 - 1019.3 - 0.0
23/01:00am 16.3 16.3 13.6 84 1.5 SW 6 - 3 - 1018.9 - 0.0
23/12:30am 16.2 16.0 13.5 84 1.5 S 7 - 4 - 1018.8 - 0.0
23/12:00am 16.4 15.8 13.6 83 1.6 SSW 9 - 5 - 1018.8 1018.8 0.0
 
Date/Time
EDT
Tmp

°C
App
Tmp
°C
Dew
Point
°C
Rel
Hum
%
Delta-T

°C
Wind Press
QNH
hPa
Press
MSL
hPa
Rain
since
9 am
mm
Dir
 
Spd
km/h
Gust
km/h
Spd
kts
Gust
kts
22/11:30pm 16.3 14.9 13.4 83 1.6 SSW 13 - 7 - 1018.6 - 0.0
22/11:00pm 17.4 15.7 13.7 79 2.1 S 15 - 8 - 1018.4 - 0.0
22/10:30pm 18.4 16.7 13.7 74 2.7 SSW 15 - 8 - 1018.5 - 0.0
22/10:00pm 20.5 19.2 12.5 60 4.5 SSW 11 - 6 - 1018.3 - 0.0
22/09:30pm 21.4 19.4 12.8 58 4.9 SW 15 - 8 - 1017.9 - 0.0
22/09:00pm 22.6 20.1 12.4 52 5.8 SW 17 - 9 - 1016.8 1016.7 0.0
22/08:30pm 27.0 25.9 11.9 39 8.7 WSW 9 - 5 - 1015.6 - 0.0
22/08:00pm 28.4 26.4 11.6 35 9.7 NNW 13 - 7 - 1014.9 - 0.0
22/07:30pm 28.9 26.0 9.6 30 10.8 N 15 - 8 - 1014.6 - 0.0
22/07:00pm 29.3 26.6 10.2 30 10.8 N 15 - 8 - 1014.1 - 0.0
22/06:30pm 29.9 25.8 7.7 25 12.1 N 19 - 10 - 1014.0 - 0.0
22/06:00pm 29.8 26.3 8.9 27 11.6 N 17 - 9 - 1014.2 1014.1 0.0

Latest Capital City Observations: Canberra | Sydney | Melbourne | Brisbane | Adelaide | Perth | Hobart | Darwin

Other Formats:

Comma delimited format used in spreadsheet applications
http://www.bom.gov.au/fwo/IDV60901/IDV60901.94868.axf

JavaScript Object Notation format (JSON) in row-major order
http://www.bom.gov.au/fwo/IDV60901/IDV60901.94868.json